createdAt,value
2022-11-25T00:01:24.459Z,93914.91
2022-11-25T00:03:53.654Z,93912.94
2022-11-25T00:06:25.674Z,93922.09
2022-11-25T00:09:05.183Z,93924.03
2022-11-25T00:11:34.332Z,93928.47
2022-11-25T00:14:00.960Z,93931.84
2022-11-25T00:16:27.776Z,93938.50
2022-11-25T00:18:56.607Z,93936.44
2022-11-25T00:21:25.936Z,93930.88
2022-11-25T00:23:54.548Z,93936.22
2022-11-25T00:26:22.498Z,93932.91
2022-11-25T00:28:50.012Z,93934.06
2022-11-25T00:31:16.597Z,93941.22
2022-11-25T00:33:43.866Z,93949.13
2022-11-25T00:36:31.539Z,93940.75
2022-11-25T00:39:12.293Z,93936.59
2022-11-25T00:41:57.788Z,93939.00
2022-11-25T00:44:37.317Z,93932.38
2022-11-25T00:47:16.544Z,93946.06
2022-11-25T00:49:51.745Z,93941.25
2022-11-25T00:52:24.599Z,93935.66
2022-11-25T00:54:52.929Z,93949.34
2022-11-25T00:57:23.857Z,93942.41
2022-11-25T00:59:50.928Z,93943.31
2022-11-25T01:02:19.627Z,93942.16
2022-11-25T01:04:47.541Z,93938.72
2022-11-25T01:07:14.358Z,93939.84
2022-11-25T01:09:41.087Z,93941.22
2022-11-25T01:12:08.111Z,93940.19
2022-11-25T01:14:35.231Z,93940.44
2022-11-25T01:17:02.439Z,93934.78
2022-11-25T01:19:29.121Z,93933.38
2022-11-25T01:21:55.811Z,93934.47
2022-11-25T01:24:24.094Z,93927.03
2022-11-25T01:26:51.120Z,93931.50
2022-11-25T01:29:19.223Z,93935.50
2022-11-25T01:31:47.191Z,93920.66
2022-11-25T01:34:17.138Z,93918.97
2022-11-25T01:36:43.963Z,93923.06
2022-11-25T01:39:18.937Z,93909.97
2022-11-25T01:41:46.016Z,93900.34
2022-11-25T01:44:21.896Z,93904.09
2022-11-25T01:47:05.372Z,93899.69
2022-11-25T01:49:41.903Z,93896.88
2022-11-25T01:52:23.474Z,93899.78
2022-11-25T01:55:10.418Z,93887.81
2022-11-25T01:57:48.024Z,93879.50
2022-11-25T02:00:15.663Z,93885.28
2022-11-25T02:02:43.056Z,93887.22
2022-11-25T02:05:13.462Z,93896.91
2022-11-25T02:07:43.578Z,93899.97
2022-11-25T02:10:18.209Z,93894.13
2022-11-25T02:12:46.543Z,93908.34
2022-11-25T02:15:14.908Z,93903.31
2022-11-25T02:17:43.160Z,93915.63
2022-11-25T02:20:18.284Z,93911.84
2022-11-25T02:22:54.050Z,93909.09
2022-11-25T02:25:27.180Z,93917.06
2022-11-25T02:28:08.773Z,93924.38
2022-11-25T02:30:35.526Z,93913.00
2022-11-25T02:33:02.432Z,93916.88
2022-11-25T02:35:43.483Z,93925.94
2022-11-25T02:38:26.484Z,93906.56
2022-11-25T02:41:06.173Z,93919.72
2022-11-25T02:43:33.445Z,93921.31
2022-11-25T02:46:04.349Z,93923.94
2022-11-25T02:49:06.889Z,93930.00
2022-11-25T02:51:23.868Z,93924.69
2022-11-25T02:53:51.266Z,93935.34
2022-11-25T02:56:19.193Z,93935.59
2022-11-25T02:58:45.959Z,93937.28
2022-11-25T03:01:12.885Z,93929.78
2022-11-25T03:03:39.601Z,93933.56
2022-11-25T03:06:06.713Z,93939.50
2022-11-25T03:08:33.365Z,93944.19
2022-11-25T03:11:00.091Z,93943.66
2022-11-25T03:13:27.407Z,93941.50
2022-11-25T03:15:54.097Z,93946.69
2022-11-25T03:18:20.938Z,93948.16
2022-11-25T03:20:47.608Z,93951.38
2022-11-25T03:23:14.294Z,93950.06
2022-11-25T03:25:40.940Z,93961.03
2022-11-25T03:28:07.565Z,93955.06
2022-11-25T03:30:34.460Z,93973.44
2022-11-25T03:33:01.209Z,93972.03
2022-11-25T03:35:28.547Z,93968.50
2022-11-25T03:37:55.879Z,93968.50
2022-11-25T03:40:22.901Z,93978.25
2022-11-25T03:42:49.782Z,93965.38
2022-11-25T03:45:17.026Z,93971.06
2022-11-25T03:47:44.831Z,93977.97
2022-11-25T03:50:13.821Z,93978.44
2022-11-25T03:52:40.713Z,93985.28
2022-11-25T03:55:08.314Z,93979.88
2022-11-25T03:57:35.239Z,93986.28
2022-11-25T04:00:02.164Z,93974.31
2022-11-25T04:02:29.056Z,93977.75
2022-11-25T04:04:55.701Z,93986.56
2022-11-25T04:07:22.402Z,93997.31
2022-11-25T04:09:49.140Z,93994.19
2022-11-25T04:12:34.247Z,93993.44
2022-11-25T04:15:00.817Z,93998.00
2022-11-25T04:17:27.384Z,94004.22
2022-11-25T04:19:53.980Z,94008.88
2022-11-25T04:22:20.522Z,94011.41
2022-11-25T04:24:47.271Z,94018.78
2022-11-25T04:27:13.858Z,94009.06
2022-11-25T04:29:40.533Z,94009.69
2022-11-25T04:32:07.155Z,94014.88
2022-11-25T04:34:34.028Z,94014.63
2022-11-25T04:37:00.853Z,94004.94
2022-11-25T04:39:27.453Z,94021.13
2022-11-25T04:42:14.003Z,94018.13
2022-11-25T04:44:40.692Z,94025.91
2022-11-25T04:47:07.463Z,94023.47
2022-11-25T04:49:34.080Z,94026.00
2022-11-25T04:52:00.959Z,94025.38
2022-11-25T04:54:27.577Z,94018.50
2022-11-25T04:56:54.183Z,94037.47
2022-11-25T04:59:39.562Z,94048.28
2022-11-25T05:02:15.148Z,94042.56
2022-11-25T05:04:43.608Z,94045.41
2022-11-25T05:07:10.892Z,94051.38
2022-11-25T05:09:37.986Z,94058.81
2022-11-25T05:12:05.853Z,94060.88
2022-11-25T05:14:32.827Z,94066.41
2022-11-25T05:16:59.552Z,94061.63
2022-11-25T05:19:26.302Z,94074.13
2022-11-25T05:21:52.904Z,94077.25
2022-11-25T05:24:19.530Z,94092.63
2022-11-25T05:26:46.177Z,94098.91
2022-11-25T05:29:12.817Z,94097.09
2022-11-25T05:31:39.459Z,94110.25
2022-11-25T05:34:06.095Z,94103.59
2022-11-25T05:36:32.824Z,94109.22
2022-11-25T05:39:00.452Z,94116.41
2022-11-25T05:41:27.688Z,94127.75
2022-11-25T05:43:54.656Z,94125.28
2022-11-25T05:46:21.528Z,94132.69
2022-11-25T05:48:48.224Z,94137.66
2022-11-25T05:51:14.869Z,94133.19
2022-11-25T05:53:41.451Z,94140.09
2022-11-25T05:56:09.822Z,94142.00
2022-11-25T05:58:36.497Z,94148.44
2022-11-25T06:01:07.953Z,94147.50
2022-11-25T06:03:35.092Z,94146.19
2022-11-25T06:06:02.138Z,94161.94
2022-11-25T06:08:28.975Z,94154.34
2022-11-25T06:10:55.564Z,94162.78
2022-11-25T06:13:22.379Z,94172.72
2022-11-25T06:15:49.241Z,94175.69
2022-11-25T06:18:17.377Z,94173.16
2022-11-25T06:20:44.628Z,94179.31
2022-11-25T06:23:11.357Z,94172.03
2022-11-25T06:25:37.988Z,94187.75
2022-11-25T06:28:12.890Z,94186.75
2022-11-25T06:30:39.943Z,94193.38
2022-11-25T06:33:06.613Z,94204.00
2022-11-25T06:35:33.274Z,94207.44
2022-11-25T06:38:00.116Z,94205.88
2022-11-25T06:40:26.762Z,94212.84
2022-11-25T06:42:53.448Z,94205.19
2022-11-25T06:45:20.062Z,94212.44
2022-11-25T06:47:46.658Z,94210.59
2022-11-25T06:50:13.315Z,94211.78
2022-11-25T06:52:39.929Z,94215.00
2022-11-25T06:55:06.920Z,94211.63
2022-11-25T06:57:33.583Z,94206.13
2022-11-25T07:00:00.236Z,94214.91
2022-11-25T07:02:26.968Z,94218.41
2022-11-25T07:04:53.902Z,94216.00
2022-11-25T07:07:20.624Z,94220.53
2022-11-25T07:09:47.797Z,94226.72
2022-11-25T07:12:14.656Z,94228.59
2022-11-25T07:14:41.276Z,94222.88
2022-11-25T07:17:11.944Z,94217.13
2022-11-25T07:19:39.077Z,94222.72
2022-11-25T07:22:05.715Z,94233.00
2022-11-25T07:24:33.873Z,94227.66
2022-11-25T07:27:00.744Z,94235.81
2022-11-25T07:30:03.175Z,94237.94
2022-11-25T07:32:14.616Z,94230.97
2022-11-25T07:34:41.374Z,94231.25
2022-11-25T07:37:08.261Z,94236.00
2022-11-25T07:39:35.380Z,94231.91
2022-11-25T07:42:02.270Z,94231.66
2022-11-25T07:44:28.964Z,94242.69
2022-11-25T07:46:55.713Z,94240.22
2022-11-25T07:49:26.072Z,94236.09
2022-11-25T07:51:59.790Z,94248.13
2022-11-25T07:54:26.751Z,94236.19
2022-11-25T07:56:53.710Z,94240.66
2022-11-25T07:59:22.871Z,94244.34
2022-11-25T08:01:51.347Z,94249.19
2022-11-25T08:04:20.740Z,94251.44
2022-11-25T08:06:49.460Z,94264.53
2022-11-25T08:09:19.436Z,94257.19
2022-11-25T08:11:47.161Z,94260.91
2022-11-25T08:14:14.530Z,94257.91
2022-11-25T08:16:41.243Z,94260.84
2022-11-25T08:19:11.650Z,94269.75
2022-11-25T08:21:38.304Z,94267.91
2022-11-25T08:24:05.464Z,94273.31
2022-11-25T08:26:36.505Z,94266.53
2022-11-25T08:29:07.447Z,94274.50
2022-11-25T08:31:37.707Z,94275.44
2022-11-25T08:34:07.551Z,94271.41
2022-11-25T08:36:35.505Z,94279.13
2022-11-25T08:39:22.614Z,94280.50
2022-11-25T08:41:52.453Z,94279.94
2022-11-25T08:44:19.165Z,94274.91
2022-11-25T08:46:45.809Z,94279.22
2022-11-25T08:49:13.437Z,94270.81
2022-11-25T08:51:40.367Z,94275.06
2022-11-25T08:54:08.306Z,94289.00
2022-11-25T08:56:35.444Z,94284.00
2022-11-25T08:59:02.727Z,94283.03
2022-11-25T09:01:29.725Z,94280.25
2022-11-25T09:03:57.380Z,94277.84
2022-11-25T09:06:27.518Z,94280.88
2022-11-25T09:08:58.888Z,94272.88
2022-11-25T09:11:26.057Z,94283.09
2022-11-25T09:13:52.866Z,94276.50
2022-11-25T09:16:20.866Z,94277.56
2022-11-25T09:18:52.406Z,94272.50
2022-11-25T09:21:22.211Z,94275.00
2022-11-25T09:23:51.222Z,94279.25
2022-11-25T09:26:39.647Z,94285.59
2022-11-25T09:29:06.621Z,94277.91
2022-11-25T09:31:33.234Z,94282.38
2022-11-25T09:34:00.273Z,94282.69
2022-11-25T09:36:26.923Z,94273.81
2022-11-25T09:38:53.593Z,94287.22
2022-11-25T09:42:23.649Z,94283.41
2022-11-25T09:45:33.691Z,94293.94
2022-11-25T09:48:34.190Z,94286.88
2022-11-25T09:51:09.863Z,94282.69
2022-11-25T09:53:43.766Z,94287.34
2022-11-25T09:56:17.495Z,94279.22
2022-11-25T09:58:59.646Z,94281.25
2022-11-25T10:01:30.623Z,94282.84
2022-11-25T10:04:05.357Z,94285.22
2022-11-25T10:06:53.538Z,94284.31
2022-11-25T10:09:26.044Z,94288.75
2022-11-25T10:12:01.103Z,94277.91
2022-11-25T10:14:53.053Z,94286.84
2022-11-25T10:17:31.100Z,94282.72
2022-11-25T10:20:05.576Z,94283.41
2022-11-25T10:22:35.673Z,94290.78
2022-11-25T10:25:13.083Z,94288.63
2022-11-25T10:28:03.573Z,94278.09
2022-11-25T10:31:01.134Z,94293.59
2022-11-25T10:33:32.060Z,94301.88
2022-11-25T10:36:14.426Z,94301.19
2022-11-25T10:39:02.405Z,94292.56
2022-11-25T10:41:33.314Z,94282.72
2022-11-25T10:43:59.976Z,94285.44
2022-11-25T10:47:12.130Z,94285.78
2022-11-25T10:49:50.143Z,94287.72
2022-11-25T10:52:23.341Z,94285.19
2022-11-25T10:55:18.376Z,94303.25
2022-11-25T10:57:45.091Z,94290.41
2022-11-25T11:00:34.287Z,94287.97
2022-11-25T11:03:15.049Z,94314.16
2022-11-25T11:05:48.992Z,94314.19
2022-11-25T11:08:22.319Z,94325.44
2022-11-25T11:11:13.635Z,94315.22
2022-11-25T11:13:40.722Z,94321.50
2022-11-25T11:16:36.200Z,94320.09
2022-11-25T11:19:04.350Z,94326.78
2022-11-25T11:21:34.588Z,94322.38
2022-11-25T11:24:02.309Z,94309.84
2022-11-25T11:26:34.622Z,94314.78
2022-11-25T11:29:07.365Z,94319.63
2022-11-25T11:31:41.001Z,94314.44
2022-11-25T11:34:26.633Z,94317.91
2022-11-25T11:36:53.151Z,94310.50
2022-11-25T11:39:35.431Z,94316.28
2022-11-25T11:42:19.276Z,94313.13
2022-11-25T11:44:51.754Z,94332.22
2022-11-25T11:47:35.581Z,94330.63
2022-11-25T11:50:26.353Z,94316.19
2022-11-25T11:52:59.745Z,94314.78
2022-11-25T11:55:35.280Z,94312.38
2022-11-25T11:58:14.041Z,94318.00
2022-11-25T12:00:56.172Z,94321.38
2022-11-25T12:03:25.528Z,94313.56
2022-11-25T12:05:55.921Z,94310.00
2022-11-25T12:09:02.701Z,94327.03
2022-11-25T12:11:40.406Z,94311.88
2022-11-25T12:14:35.799Z,94322.19
2022-11-25T12:17:12.135Z,94336.28
2022-11-25T12:19:55.190Z,94324.50
2022-11-25T12:22:46.568Z,94332.78
2022-11-25T12:25:35.606Z,94323.78
2022-11-25T12:28:12.878Z,94331.66
2022-11-25T12:31:04.792Z,94319.59
2022-11-25T12:33:51.141Z,94320.50
2022-11-25T12:36:39.278Z,94319.13
2022-11-25T12:39:28.908Z,94318.34
2022-11-25T12:41:59.996Z,94320.44
2022-11-25T12:44:35.791Z,94316.78
2022-11-25T12:47:02.676Z,94307.13
2022-11-25T12:49:32.782Z,94309.59
2022-11-25T12:52:18.215Z,94311.44
2022-11-25T12:54:44.816Z,94312.84
2022-11-25T12:57:19.578Z,94306.25
2022-11-25T13:00:01.645Z,94305.19
2022-11-25T13:03:13.709Z,94309.91
2022-11-25T13:05:49.658Z,94307.56
2022-11-25T13:08:37.071Z,94306.34
2022-11-25T13:11:41.337Z,94305.59
2022-11-25T13:14:20.487Z,94300.44
2022-11-25T13:16:49.739Z,94298.28
2022-11-25T13:19:19.297Z,94297.97
2022-11-25T13:22:01.283Z,94299.13
2022-11-25T13:24:40.588Z,94301.66
2022-11-25T13:27:52.958Z,94299.56
2022-11-25T13:30:31.919Z,94294.22
2022-11-25T13:33:18.867Z,94320.06
2022-11-25T13:36:08.003Z,94310.00
2022-11-25T13:38:58.173Z,94313.81
2022-11-25T13:41:33.199Z,94306.00
2022-11-25T13:44:14.923Z,94304.53
2022-11-25T13:46:47.960Z,94306.13
2022-11-25T13:49:31.609Z,94306.88
2022-11-25T13:52:03.170Z,94306.50
2022-11-25T13:54:45.637Z,94309.81
2022-11-25T13:57:12.144Z,94317.03
2022-11-25T13:59:51.250Z,94308.91
2022-11-25T14:02:29.874Z,94317.44
2022-11-25T14:05:30.218Z,94313.88
2022-11-25T14:08:17.914Z,94319.78
2022-11-25T14:10:46.074Z,94318.88
2022-11-25T14:13:46.548Z,94321.69
2022-11-25T14:16:43.562Z,94325.00
2022-11-25T14:22:31.924Z,94323.41
2022-11-25T14:25:19.146Z,94329.00
2022-11-25T14:27:52.416Z,94328.69
2022-11-25T14:30:19.698Z,94332.16
2022-11-25T14:33:11.518Z,94338.28
2022-11-25T14:35:47.161Z,94338.28
2022-11-25T14:38:19.668Z,94333.06
2022-11-25T14:41:08.437Z,94343.50
2022-11-25T14:43:45.508Z,94339.66
2022-11-25T14:46:20.708Z,94349.00
2022-11-25T14:48:55.024Z,94342.25
2022-11-25T14:51:22.781Z,94351.78
2022-11-25T14:53:51.306Z,94340.22
2022-11-25T14:56:31.204Z,94348.97
2022-11-25T14:58:59.246Z,94351.06
2022-11-25T15:01:34.596Z,94344.94
2022-11-25T15:04:13.449Z,94354.13
2022-11-25T15:06:42.821Z,94345.47
2022-11-25T15:09:30.258Z,94347.88
2022-11-25T15:12:02.718Z,94354.41
2022-11-25T15:14:33.982Z,94350.91
2022-11-25T15:17:06.612Z,94352.00
2022-11-25T15:19:36.169Z,94347.41
2022-11-25T15:22:23.484Z,94351.63
2022-11-25T15:24:55.396Z,94354.13
2022-11-25T15:27:27.827Z,94363.00
2022-11-25T15:29:57.317Z,94365.38
2022-11-25T15:32:29.849Z,94369.78
2022-11-25T15:35:00.260Z,94378.09
2022-11-25T15:37:28.339Z,94384.41
2022-11-25T15:40:56.997Z,94384.78
2022-11-25T15:43:29.938Z,94377.72
2022-11-25T15:46:00.548Z,94389.72
2022-11-25T15:48:40.417Z,94391.88
2022-11-25T15:51:43.962Z,94396.16
2022-11-25T15:54:37.181Z,94392.53
2022-11-25T15:57:16.772Z,94390.28
2022-11-25T15:59:51.594Z,94388.38
2022-11-25T16:02:47.251Z,94391.47
2022-11-25T16:05:14.127Z,94389.72
2022-11-25T16:07:49.810Z,94397.00
2022-11-25T16:10:50.778Z,94398.16
2022-11-25T16:13:22.033Z,94389.72
2022-11-25T16:15:56.538Z,94400.19
2022-11-25T16:18:46.662Z,94397.75
2022-11-25T16:21:21.134Z,94397.44
2022-11-25T16:23:51.846Z,94391.50
2022-11-25T16:26:25.729Z,94396.25
2022-11-25T16:28:58.166Z,94411.78
2022-11-25T16:31:28.691Z,94399.41
2022-11-25T16:34:02.145Z,94400.88
2022-11-25T16:36:28.760Z,94399.28
2022-11-25T16:38:55.407Z,94391.53
2022-11-25T16:41:25.394Z,94404.59
2022-11-25T16:43:52.101Z,94403.44
2022-11-25T16:46:20.100Z,94402.72
2022-11-25T16:48:47.405Z,94402.22
2022-11-25T16:51:17.128Z,94406.72
2022-11-25T16:53:44.482Z,94410.84
2022-11-25T16:56:26.829Z,94405.16
2022-11-25T16:58:54.807Z,94410.41
2022-11-25T17:01:24.663Z,94411.94
2022-11-25T17:03:51.607Z,94414.16
2022-11-25T17:06:22.351Z,94410.53
2022-11-25T17:08:50.545Z,94416.78
2022-11-25T17:11:28.287Z,94408.38
2022-11-25T17:13:56.429Z,94415.50
2022-11-25T17:16:26.590Z,94411.97
2022-11-25T17:18:55.301Z,94417.59
2022-11-25T17:21:26.928Z,94419.34
2022-11-25T17:24:11.266Z,94411.34
2022-11-25T17:26:40.602Z,94417.44
2022-11-25T17:29:13.450Z,94412.72
2022-11-25T17:31:41.113Z,94406.53
2022-11-25T17:34:13.444Z,94420.97
2022-11-25T17:36:40.275Z,94420.84
2022-11-25T17:39:07.108Z,94421.91
2022-11-25T17:41:39.803Z,94425.91
2022-11-25T17:44:09.308Z,94425.41
2022-11-25T17:46:35.860Z,94433.03
2022-11-25T17:49:02.491Z,94433.25
2022-11-25T17:51:29.129Z,94429.63
2022-11-25T17:53:55.722Z,94437.28
2022-11-25T17:56:30.102Z,94439.44
2022-11-25T17:59:02.314Z,94430.53
2022-11-25T18:01:28.985Z,94439.06
2022-11-25T18:03:55.873Z,94432.25
2022-11-25T18:06:23.271Z,94437.75
2022-11-25T18:08:50.023Z,94438.19
2022-11-25T18:11:18.826Z,94444.16
2022-11-25T18:13:47.785Z,94441.16
2022-11-25T18:16:18.097Z,94440.50
2022-11-25T18:18:44.903Z,94445.16
2022-11-25T18:21:11.917Z,94442.28
2022-11-25T18:23:38.507Z,94441.84
2022-11-25T18:26:05.551Z,94435.03
2022-11-25T18:28:32.835Z,94436.81
2022-11-25T18:31:04.565Z,94440.78
2022-11-25T18:33:31.626Z,94440.69
2022-11-25T18:35:58.377Z,94444.38
2022-11-25T18:38:28.267Z,94449.19
2022-11-25T18:40:58.787Z,94442.94
2022-11-25T18:43:30.303Z,94449.06
2022-11-25T18:45:57.270Z,94443.72
2022-11-25T18:48:26.265Z,94444.84
2022-11-25T18:50:56.148Z,94438.16
2022-11-25T18:53:23.635Z,94440.66
2022-11-25T18:55:50.597Z,94446.13
2022-11-25T18:58:27.121Z,94447.44
2022-11-25T19:00:59.199Z,94456.25
2022-11-25T19:03:26.514Z,94451.59
2022-11-25T19:05:59.404Z,94459.00
2022-11-25T19:08:25.997Z,94465.63
2022-11-25T19:10:52.799Z,94459.78
2022-11-25T19:13:26.316Z,94459.16
2022-11-25T19:15:53.683Z,94464.94
2022-11-25T19:18:25.666Z,94469.75
2022-11-25T19:20:52.640Z,94464.56
2022-11-25T19:23:30.945Z,94469.34
2022-11-25T19:26:11.551Z,94467.34
2022-11-25T19:28:38.310Z,94466.84
2022-11-25T19:31:05.904Z,94468.97
2022-11-25T19:33:38.981Z,94472.25
2022-11-25T19:36:06.749Z,94479.78
2022-11-25T19:38:34.926Z,94478.50
2022-11-25T19:41:01.744Z,94482.72
2022-11-25T19:43:28.405Z,94481.94
2022-11-25T19:45:57.029Z,94472.97
2022-11-25T19:48:27.132Z,94476.75
2022-11-25T19:50:59.605Z,94473.13
2022-11-25T19:53:33.232Z,94480.56
2022-11-25T19:56:04.126Z,94477.56
2022-11-25T19:58:31.240Z,94474.81
2022-11-25T20:01:02.378Z,94482.88
2022-11-25T20:03:31.002Z,94482.41
2022-11-25T20:05:58.341Z,94482.91
2022-11-25T20:08:27.375Z,94481.97
2022-11-25T20:10:55.176Z,94481.03
2022-11-25T20:13:23.494Z,94481.66
2022-11-25T20:15:50.804Z,94476.50
2022-11-25T20:18:22.369Z,94479.03
2022-11-25T20:20:56.014Z,94479.16
2022-11-25T20:23:43.657Z,94490.88
2022-11-25T20:26:38.347Z,94493.50
2022-11-25T20:29:19.166Z,94499.59
2022-11-25T20:31:46.963Z,94506.81
2022-11-25T20:34:14.185Z,94502.28
2022-11-25T20:36:43.185Z,94499.31
2022-11-25T20:39:17.693Z,94504.00
2022-11-25T20:41:48.812Z,94506.16
2022-11-25T20:44:15.480Z,94510.84
2022-11-25T20:46:42.076Z,94512.88
2022-11-25T20:49:23.666Z,94522.41
2022-11-25T20:51:50.419Z,94519.25
2022-11-25T20:54:17.783Z,94519.06
2022-11-25T20:56:44.464Z,94519.31
2022-11-25T20:59:20.388Z,94523.00
2022-11-25T21:01:47.761Z,94527.09
2022-11-25T21:04:14.456Z,94529.72
2022-11-25T21:06:41.454Z,94514.97
2022-11-25T21:09:16.525Z,94523.91
2022-11-25T21:11:43.265Z,94528.66
2022-11-25T21:14:18.185Z,94530.19
2022-11-25T21:16:45.615Z,94539.94
2022-11-25T21:19:12.498Z,94532.44
2022-11-25T21:21:45.364Z,94543.41
2022-11-25T21:24:32.237Z,94543.03
2022-11-25T21:27:01.997Z,94552.91
2022-11-25T21:29:29.854Z,94560.88
2022-11-25T21:31:56.591Z,94568.72
2022-11-25T21:34:23.383Z,94572.00
2022-11-25T21:36:52.916Z,94575.91
2022-11-25T21:39:27.908Z,94580.28
2022-11-25T21:41:55.079Z,94576.44
2022-11-25T21:44:28.744Z,94575.06
2022-11-25T21:46:55.769Z,94577.75
2022-11-25T21:49:24.138Z,94580.66
2022-11-25T21:51:50.824Z,94589.09
2022-11-25T21:54:17.496Z,94582.47
2022-11-25T21:56:44.831Z,94591.19
2022-11-25T21:59:18.595Z,94589.97
2022-11-25T22:01:45.967Z,94583.88
2022-11-25T22:04:15.677Z,94581.34
2022-11-25T22:06:42.821Z,94588.38
2022-11-25T22:09:10.496Z,94575.69
2022-11-25T22:11:45.510Z,94584.03
2022-11-25T22:14:18.648Z,94588.09
2022-11-25T22:16:45.411Z,94591.88
2022-11-25T22:19:22.836Z,94594.03
2022-11-25T22:21:49.510Z,94597.94
2022-11-25T22:24:17.357Z,94610.00
2022-11-25T22:26:46.601Z,94612.03
2022-11-25T22:29:15.410Z,94602.47
2022-11-25T22:31:42.813Z,94601.53
2022-11-25T22:34:20.846Z,94592.34
2022-11-25T22:36:48.679Z,94598.56
2022-11-25T22:39:16.851Z,94606.09
2022-11-25T22:41:46.035Z,94605.91
2022-11-25T22:44:19.483Z,94601.03
2022-11-25T22:46:47.207Z,94605.09
2022-11-25T22:49:28.901Z,94601.09
2022-11-25T22:51:56.437Z,94598.53
2022-11-25T22:54:23.661Z,94605.47
2022-11-25T22:56:50.700Z,94610.06
2022-11-25T22:59:17.300Z,94609.84
2022-11-25T23:01:44.205Z,94611.09
2022-11-25T23:04:20.506Z,94608.72
2022-11-25T23:06:47.612Z,94603.91
2022-11-25T23:09:17.123Z,94605.13
2022-11-25T23:11:44.832Z,94609.03
2022-11-25T23:14:12.123Z,94607.59
2022-11-25T23:16:40.875Z,94605.25
2022-11-25T23:19:18.321Z,94607.00
2022-11-25T23:21:45.732Z,94599.31
2022-11-25T23:24:15.501Z,94603.56
2022-11-25T23:26:43.406Z,94607.03
2022-11-25T23:29:10.165Z,94600.75
2022-11-25T23:31:38.945Z,94604.06
2022-11-25T23:34:07.399Z,94594.63
2022-11-25T23:36:42.641Z,94597.34
2022-11-25T23:39:21.681Z,94592.63
2022-11-25T23:41:48.984Z,94595.16
2022-11-25T23:44:22.705Z,94596.41
2022-11-25T23:46:49.895Z,94595.88
2022-11-25T23:49:20.563Z,94592.31
2022-11-25T23:51:47.456Z,94589.19
2022-11-25T23:54:16.810Z,94589.69
2022-11-25T23:56:43.448Z,94586.25
2022-11-25T23:59:13.821Z,94590.22
